Latest Coastal Weather Observations for Hamilton Island

IDQ60701

Issued at 9:12 am EST Tuesday 3 May 2016 (issued every 10 minutes, with the page automatically refreshed every 10 minutes)

About coastal observations | Map of coastal stations | Coastal observations for QLD | Marine services | Other Formats
Station Details ID: 033106 Name: HAMILTON ISLAND AIRPORT Lat: -20.37 Lon: 148.95 Height: 58.66 m
Data from the previous 72 hours. | See also: Recent months at Hamilton Island
Date/Time
EST
Temp

°C
Wind Pressure Rain
since 9am
mm
Weather Cloud Vis
km
Sea
Height
m
Swell
Dir
 
Speed
knots
Gust
knots
hPa Trend Height
m
Period
s
Dir
03/09:00am 24.7 SE 4 5 1015.4 - 0.0 - Cloudy 10 - - - -
03/08:54am 24.7 SE 4 6 1015.6 - 0.0 - Partly cloudy 10 - - - -
03/08:51am 24.6 SE 4 6 1015.6 - 0.0 - Partly cloudy 10 - - - -
03/08:30am 24.7 SSE 3 4 1015.6 - 0.0 - Partly cloudy 10 - - - -
03/08:03am 24.3 SW 1 4 1015.5 - 0.0 - Partly cloudy 10 - - - -
03/08:00am 24.5 CALM 0 0 1015.4 - 0.0 - Partly cloudy 10 - - - -
03/07:30am 24.5 WSW 2 4 1015.2 - 0.0 - - 10 - - - -
03/07:00am 24.1 CALM 0 0 1015.0 - 0.0 - - 10 - - - -
03/06:30am 23.9 W 1 3 1014.7 - 0.0 - - 10 - - - -
03/06:00am 23.8 NW 3 3 1014.0 - 0.0 - - 10 - - - -
03/05:30am 23.8 CALM 0 0 1014.1 - 0.0 - - 10 - - - -
03/05:00am 24.0 S 3 4 1014.0 - 0.0 - - 10 - - - -
03/04:30am 24.0 CALM 0 0 1013.9 - 0.0 - - 10 - - - -
03/04:00am 24.0 CALM 0 0 1014.0 - 0.0 - - 10 - - - -
03/03:30am 24.0 CALM 0 0 1014.0 - 0.0 - - 10 - - - -
03/03:00am 24.0 SSW 3 4 1013.8 - 0.0 - Mostly clear 10 - - - -
03/02:30am 24.1 SSW 3 4 1014.1 - 0.0 - - 10 - - - -
03/02:00am 24.0 CALM 0 3 1014.3 - 0.0 - - 10 - - - -
03/01:30am 24.0 WNW 2 5 1014.4 - 0.0 - - 10 - - - -
03/01:00am 24.1 NW 3 4 1014.8 - 0.0 - Partly cloudy - - - - -
03/12:30am 24.2 NW 2 3 1014.9 - 0.0 - Partly cloudy 10 - - - -
03/12:00am 24.4 NW 3 4 1015.0 - 0.0 - Mostly clear 10 - - - -
 
Date/Time
EST
Temp

°C
Wind Pressure Rain
since 9am
mm
Weather Cloud Vis
km
Sea
Height
m
Swell
Dir
 
Speed
knots
Gust
knots
hPa Trend Height
m
Period
s
Dir
02/11:30pm 24.7 N 3 4 1015.5 - 0.0 - - 10 - - - -
02/11:00pm 24.8 CALM 0 0 1015.6 - 0.0 - - 10 - - - -
02/10:30pm 24.8 CALM 0 0 1016.0 - 0.0 - - 10 - - - -
02/10:00pm 24.8 CALM 0 0 1016.0 - 0.0 - - 10 - - - -
02/09:30pm 24.8 CALM 0 0 1016.2 - 0.0 - Partly cloudy 10 - - - -
02/09:00pm 25.0 NE 1 3 1015.9 - 0.0 - - 10 - - - -
02/08:30pm 25.1 NE 1 3 1016.2 - 0.0 - - 10 - - - -
02/08:00pm 25.1 E 4 5 1015.8 - 0.0 - Partly cloudy 10 - - - -
02/07:30pm 25.3 ENE 5 6 1015.2 - 0.0 - - 10 - - - -
02/07:00pm 25.5 ENE 6 9 1014.9 - 0.0 - - 10 - - - -
02/06:30pm 25.5 E 8 10 1014.5 - 0.0 - - 10 - - - -
02/06:00pm 25.6 E 9 11 1014.0 - 0.0 - - 10 - - - -
02/05:30pm 25.7 E 9 11 1014.0 - 0.0 - Partly cloudy 10 - - - -
02/05:26pm 25.8 E 9 12 1013.9 - 0.0 - Partly cloudy 10 - - - -
02/05:00pm 25.7 E 11 13 1013.8 - 0.0 - Partly cloudy 10 - - - -
02/04:57pm 25.8 E 11 13 1013.8 - 0.0 - Partly cloudy 10 - - - -
02/04:30pm 25.9 E 10 11 1013.5 - 0.0 - Partly cloudy 10 - - - -
02/04:00pm 26.0 E 11 12 1013.3 - 0.0 - Partly cloudy 10 - - - -
02/03:30pm 26.1 E 11 12 1013.4 - 0.0 - Cloudy 10 - - - -
02/03:00pm 26.2 E 10 11 1013.2 - 0.0 - Cloudy 10 - - - -
02/02:47pm 26.3 ESE 9 11 1013.4 - 0.0 - Partly cloudy 10 - - - -
02/02:30pm 26.6 ESE 9 10 1013.4 - 0.0 - Partly cloudy 10 - - - -
02/02:10pm 26.7 ESE 6 7 1013.5 - 0.0 - Partly cloudy 10 - - - -
02/02:00pm 26.7 SE 7 8 1013.6 - 0.0 - Partly cloudy 10 - - - -
02/01:30pm 27.1 SSE 8 10 1014.1 - 0.0 - Partly cloudy 10 - - - -
02/01:00pm 26.7 SSE 10 11 1014.5 - 0.0 - - 10 - - - -
02/12:30pm 27.1 SSE 9 10 1014.8 - 0.0 - - 10 - - - -
02/12:00pm 27.1 SSE 10 11 1015.0 - 0.0 - - 10 - - - -
02/11:30am 27.0 SSE 9 10 1015.7 - 0.0 - Partly cloudy 10 - - - -
02/11:00am 26.9 SSE 9 10 1016.0 - 0.0 - Partly cloudy 10 - - - -
02/10:30am 26.7 SSE 8 10 1016.4 - 0.0 - Partly cloudy 10 - - - -
02/10:00am 27.1 SSE 6 8 1016.7 - 0.0 - Partly cloudy 10 - - - -
02/09:30am 26.9 SSE 6 8 1016.8 - 0.0 - Partly cloudy 10 - - - -
02/09:00am 26.3 SE 4 6 1016.4 - 0.2 - Cloudy 10 - - - -
02/08:47am 26.1 SSE 6 7 1016.5 - 0.2 - Partly cloudy 10 - - - -
02/08:30am 25.6 SSE 5 7 1016.4 - 0.2 - Partly cloudy 10 - - - -
02/08:00am 25.6 SSE 6 7 1016.2 - 0.2 - Partly cloudy 10 - - - -
02/07:30am 24.9 SSE 6 8 1015.9 - 0.2 - Partly cloudy 10 - - - -
02/07:00am 24.8 S 5 7 1015.8 - 0.2 - Partly cloudy 10 - - - -
02/06:36am 24.6 S 6 8 1015.6 - 0.2 - Partly cloudy 10 - - - -
02/06:30am 24.6 S 6 8 1015.5 - 0.2 - Partly cloudy 10 - - - -
02/06:00am 24.6 SSE 2 3 1015.0 - 0.2 - Mostly clear 10 - - - -
02/05:52am 24.6 ESE 2 4 1015.0 - 0.2 - Partly cloudy 10 - - - -
02/05:30am 24.6 SSE 2 4 1014.9 - 0.2 - Partly cloudy 10 - - - -
02/05:00am 24.5 S 1 3 1014.6 - 0.2 - Partly cloudy 10 - - - -
02/04:57am 24.5 S 2 4 1014.5 - 0.2 - Partly cloudy 10 - - - -
02/04:30am 24.5 CALM 0 0 1014.4 - 0.2 - - 10 - - - -
02/04:00am 24.5 CALM 0 0 1014.2 - 0.2 - - 10 - - - -
02/03:30am 24.6 S 1 4 1014.3 - 0.2 - Partly cloudy 10 - - - -
02/03:00am 24.7 CALM 0 0 1014.1 - 0.2 - Mostly clear 10 - - - -
02/02:30am 24.7 CALM 0 0 1014.5 - 0.2 - Partly cloudy 10 - - - -
02/02:00am 25.0 CALM 0 0 1014.7 - 0.2 - Partly cloudy 10 - - - -
02/01:30am 24.9 CALM 0 0 1015.1 - 0.2 - Partly cloudy 10 - - - -
02/01:00am 24.9 CALM 0 0 1015.5 - 0.2 - Cloudy 10 - - - -
02/12:30am 25.0 CALM 0 0 1015.9 - 0.2 - Partly cloudy 10 - - - -
02/12:00am 25.0 NNE 1 4 1016.0 - 0.2 - Partly cloudy 10 - - - -
 
Date/Time
EST
Temp

°C
Wind Pressure Rain
since 9am
mm
Weather Cloud Vis
km
Sea
Height
m
Swell
Dir
 
Speed
knots
Gust
knots
hPa Trend Height
m
Period
s
Dir
01/11:54pm 25.1 NE 4 6 1016.2 - 0.2 - Partly cloudy 10 - - - -
01/11:30pm 25.2 ESE 4 7 1016.5 - 0.2 - Partly cloudy 10 - - - -
01/11:25pm 25.3 ESE 2 5 1016.6 - 0.2 - Partly cloudy 10 - - - -
01/11:00pm 25.3 E 3 4 1016.9 - 0.2 - Partly cloudy 10 - - - -
01/10:30pm 25.3 E 4 5 1016.9 - 0.2 - Partly cloudy 10 - - - -
01/10:00pm 25.4 E 5 6 1016.9 - 0.2 - - 10 - - - -
01/09:30pm 25.6 E 6 7 1017.1 - 0.2 - Partly cloudy 10 - - - -
01/09:00pm 25.6 E 5 7 1017.0 - 0.2 - Partly cloudy 10 - - - -
01/08:30pm 25.5 E 6 8 1017.0 - 0.2 - Partly cloudy 10 - - - -
01/08:27pm 25.5 E 6 7 1017.0 - 0.2 - Partly cloudy 10 - - - -
01/08:06pm 25.6 E 6 7 1016.8 - 0.2 - Partly cloudy 10 - - - -
01/08:00pm 25.6 E 6 8 1016.8 - 0.2 - Partly cloudy - - - - -
01/07:30pm 25.6 E 7 11 1016.5 - 0.2 - Partly cloudy 10 - - - -
01/07:00pm 25.6 E 9 10 1016.2 - 0.2 - Partly cloudy 10 - - - -
01/06:30pm 25.6 E 7 9 1015.8 - 0.2 - Partly cloudy 10 - - - -
01/06:00pm 25.7 E 8 9 1015.4 - 0.2 - Mostly cloudy 10 - - - -
01/05:30pm 25.7 E 10 11 1015.3 - 0.2 - Partly cloudy 10 - - - -
01/05:00pm 25.9 ESE 9 11 1015.1 - 0.2 - Partly cloudy 10 - - - -
01/04:30pm 26.2 E 10 12 1014.8 - 0.2 - Partly cloudy 10 - - - -
01/04:00pm 26.2 E 10 12 1014.8 - 0.2 - - 10 - - - -
01/03:30pm 26.4 ESE 9 10 1014.7 - 0.2 - Partly cloudy 10 - - - -
01/03:00pm 26.6 SE 8 9 1014.4 - 0.2 - Mostly clear 10 - - - -
01/02:30pm 26.7 SSE 8 9 1014.7 - 0.2 - - 10 - - - -
01/02:00pm 26.6 SSE 8 9 1014.9 - 0.2 - Partly cloudy 10 - - - -
01/01:30pm 26.6 SSE 9 10 1015.0 - 0.2 - Partly cloudy 10 - - - -
01/01:00pm 26.6 SSE 9 11 1015.4 - 0.2 - - 10 - - - -
01/12:30pm 26.7 SSE 9 11 1016.0 - 0.2 - - 10 - - - -
01/12:00pm 26.7 SSE 10 11 1016.3 - 0.2 - Mostly clear 10 - - - -
01/11:54am 26.6 SSE 10 12 1016.5 - 0.2 - Partly cloudy 10 - - - -
01/11:30am 26.5 SSE 10 13 1016.9 - 0.0 - Partly cloudy 10 - - - -
01/11:00am 26.3 SSE 10 13 1017.2 - 0.0 - Partly cloudy 10 - - - -
01/10:30am 25.8 SSE 10 13 1017.5 - 0.0 - Partly cloudy 10 - - - -
01/10:00am 25.9 SSE 10 12 1017.9 - 0.0 - Partly cloudy 10 - - - -
01/09:30am 25.7 SSE 10 12 1018.0 - 0.0 - Partly cloudy 10 - - - -
01/09:00am 25.1 S 10 12 1017.8 - 0.0 - Cloudy 10 - - - -
01/08:30am 25.0 SSE 11 13 1018.0 - 0.0 - Partly cloudy 10 - - - -
01/08:00am 25.3 SSE 10 13 1017.8 - 0.0 - Partly cloudy 10 - - - -
01/07:30am 24.7 S 9 12 1017.7 - 0.0 - Partly cloudy 10 - - - -
01/07:00am 24.7 SSE 10 13 1017.6 - 0.0 - Partly cloudy 10 - - - -
01/06:30am 24.6 SE 8 9 1017.3 - 0.0 - Partly cloudy 10 - - - -
01/06:00am 24.6 SSE 8 9 1016.8 - 0.0 - Partly cloudy 10 - - - -
01/05:30am 24.6 SSE 9 10 1016.8 - 0.0 - Partly cloudy 10 - - - -
01/05:00am 24.6 SSE 9 10 1016.6 - 0.0 - Partly cloudy 10 - - - -
01/04:30am 24.7 SE 8 9 1016.3 - 0.0 - Partly cloudy 10 - - - -
01/04:04am 24.5 SE 8 9 1016.3 - 0.0 - Partly cloudy 10 - - - -
01/04:00am 24.5 SE 8 9 1016.3 - 0.0 - Partly cloudy 10 - - - -
01/03:30am 24.4 SE 8 9 1016.3 - 0.0 - Partly cloudy 10 - - - -
01/03:10am 24.5 SE 8 9 1016.3 - 0.0 - Partly cloudy 10 - - - -
01/03:00am 24.6 SE 9 10 1016.0 - 0.0 - Cloudy 10 - - - -
01/02:53am 24.5 SE 9 11 1016.3 - 0.0 - Partly cloudy 10 - - - -
01/02:52am 24.5 SE 9 11 1016.3 - 0.0 - Partly cloudy 10 - - - -
01/02:30am 24.5 SE 9 10 1016.5 - 0.0 - Partly cloudy 10 - - - -
01/02:00am 24.5 SE 10 11 1016.6 - 0.0 - Partly cloudy 10 - - - -
01/01:30am 24.5 SE 10 11 1016.8 - 0.0 - - 10 - - - -
01/01:00am 24.6 SE 9 10 1017.0 - 0.0 - Partly cloudy 10 - - - -
01/12:30am 24.7 SE 9 11 1017.3 - 0.0 - Partly cloudy 10 - - - -
01/12:00am 24.9 SE 10 11 1017.3 - 0.0 - Mostly clear 10 - - - -
 
Date/Time
EST
Temp

°C
Wind Pressure Rain
since 9am
mm
Weather Cloud Vis
km
Sea
Height
m
Swell
Dir
 
Speed
knots
Gust
knots
hPa Trend Height
m
Period
s
Dir
30/11:30pm 24.7 ESE 11 13 1017.4 - 0.0 - Partly cloudy 10 - - - -
30/11:17pm 24.7 SE 11 12 1017.5 - 0.0 - Partly cloudy 10 - - - -
30/11:00pm 24.7 SE 10 11 1017.5 - 0.0 - Partly cloudy 10 - - - -
30/10:50pm 24.8 SE 10 14 1017.5 - 0.0 - Partly cloudy 10 - - - -
30/10:30pm 24.9 SE 9 11 1017.6 - 0.0 - - 10 - - - -
30/10:14pm 25.0 SE 10 11 1017.5 - 0.0 - Partly cloudy 10 - - - -
30/10:00pm 25.0 SE 10 11 1017.6 - 0.0 - Partly cloudy 10 - - - -
30/09:30pm 25.0 SE 11 13 1017.7 - 0.0 - Partly cloudy 10 - - - -
30/09:00pm 25.0 SE 10 11 1017.3 - 0.0 - Partly cloudy 10 - - - -
30/08:58pm 25.0 SE 10 11 1017.6 - 0.0 - Partly cloudy 10 - - - -
30/08:45pm 25.1 SE 11 13 1017.5 - 0.0 - Partly cloudy 10 - - - -
30/08:30pm 25.1 ESE 12 15 1017.4 - 0.0 - Partly cloudy 10 - - - -
30/08:07pm 25.2 ESE 11 13 1017.2 - 0.0 - Partly cloudy 10 - - - -
30/08:00pm 25.1 ESE 11 13 1017.1 - 0.0 - Partly cloudy 10 - - - -
30/07:30pm 25.2 ESE 12 14 1016.9 - 0.0 - - 10 - - - -
30/07:00pm 25.2 ESE 13 16 1016.6 - 0.0 - Partly cloudy 10 - - - -
30/06:30pm 25.3 ESE 12 14 1016.5 - 0.0 - - 10 - - - -
30/06:00pm 25.2 ESE 12 15 1015.9 - 0.0 - Partly cloudy 10 - - - -
30/05:40pm 25.1 SE 10 12 1016.0 - 0.0 - Partly cloudy 10 - - - -
30/05:30pm 25.4 SE 9 10 1016.0 - 0.0 - Partly cloudy 10 - - - -
30/05:00pm 25.5 SSE 12 14 1016.0 - 0.0 - Partly cloudy 10 - - - -
30/04:49pm 25.4 SSE 12 14 1015.9 - 0.0 - Partly cloudy 10 - - - -
30/04:30pm 25.6 SSE 11 12 1015.8 - 0.0 - Partly cloudy 10 - - - -
30/04:00pm 25.5 SSE 12 14 1015.7 - 0.0 - Partly cloudy 10 - - - -
30/03:30pm 26.2 SE 12 13 1015.4 - 0.0 - Partly cloudy 10 - - - -
30/03:10pm 26.1 SE 11 13 1015.3 - 0.0 - Partly cloudy 10 - - - -
30/03:00pm 25.7 SSE 11 13 1015.1 - 0.0 - Cloudy 10 - - - -
30/02:57pm 25.5 SSE 12 14 1015.3 - 0.0 - Partly cloudy 10 - - - -
30/02:30pm 25.9 SSE 13 15 1015.5 - 0.0 - Partly cloudy 10 - - - -
30/02:29pm 25.7 SSE 13 15 1015.5 - 0.0 - Partly cloudy 10 - - - -
30/02:00pm 26.0 SSE 14 17 1015.6 - 0.0 - Partly cloudy 10 - - - -
30/01:30pm 25.6 SSE 13 16 1015.8 - 0.0 - Partly cloudy 10 - - - -
30/01:17pm 26.3 SSE 13 15 1015.9 - 0.0 - Partly cloudy 10 - - - -
30/01:06pm 26.3 SSE 12 14 1016.0 - 0.0 - Partly cloudy 10 - - - -
30/01:00pm 26.1 SSE 12 15 1016.1 - 0.0 - Partly cloudy 10 - - - -
30/12:30pm 26.0 SSE 13 15 1016.7 - 0.0 - Partly cloudy 10 - - - -
30/12:00pm 25.4 SSE 15 17 1016.8 - 0.0 - Cloudy 10 - - - -
30/11:52am 25.2 SSE 16 18 1017.1 - 0.0 - Partly cloudy 10 - - - -
30/11:30am 25.8 SSE 16 18 1017.5 - 0.0 - Partly cloudy 10 - - - -
30/11:08am 25.3 SSE 17 20 1017.8 - 0.0 - Partly cloudy 10 - - - -
30/11:00am 25.6 SSE 17 19 1018.0 - 0.0 - Partly cloudy 10 - - - -
30/10:30am 25.0 S 14 17 1018.2 - 0.0 - Partly cloudy 10 - - - -
30/10:00am 25.4 S 13 17 1018.4 - 0.0 - Partly cloudy 10 - - - -
30/09:30am 25.4 S 14 18 1018.4 - 0.0 - Partly cloudy 10 - - - -

Other Formats:

Comma delimited format used in spreadsheet applications
http://www.bom.gov.au/fwo/IDQ60701/IDQ60701.94368.axf

JavaScript Object Notation format (JSON) in row-major order
http://www.bom.gov.au/fwo/IDQ60701/IDQ60701.94368.json